Share

مكة, السعودية

King Abdulaziz International (OEJN) Elev 49 ft | 21.70 °N, 39.18 °E | Change Station

Current weather conditions updated 53 seconds ago

Clear
صافية
86 °F
Feels Like 89 °F
N
6
ريح متغير ريح from غرب
شروق الشمس 5:58 AM
غروب الشمس 6:41 PM
قمر الأحدب الأخير

Tomorrow is forecast to be Warmer than today.

الضغط 29.80 في
وضوح الرؤية -9999.0 أميال
سحابات
مؤشر الحرارة 89 °F
نقطة الندى 68 °F
الرطوبة 55%
Rainfall 0.00 في
عمق الثلج Not available.
الأشعة فوق البنفسجية Not available.
Pollen Not available.
جودة الهواء Not available.
Flu Activity Not available.
METAR OEJN 192000Z 28005KT CAVOK 30/20 Q1009 NOSIG

More Conditions Fewer Conditions

الضغط 29.80 في
وضوح الرؤية -9999.0 أميال
سحابات
مؤشر الحرارة 89 °F
نقطة الندى 68 °F
الرطوبة 55%
Rainfall 0.00 في
عمق الثلج Not available.
الأشعة فوق البنفسجية Not available.
Pollen Not available.
جودة الهواء Not available.
Flu Activity Not available.
METAR OEJN 192000Z 28005KT CAVOK 30/20 Q1009 NOSIG

More Conditions Fewer Conditions

10-Day Weather Forecast

Almanac

علم الفلك

Apr. 19, 2014 Rise Set
Actual Time 5:58 AM AST 6:41 PM AST
Civil Twilight 5:35 AM AST 7:04 PM AST
Nautical Twilight 5:09 AM AST 7:31 PM AST
Astronomical Twilight 4:42 AM AST 7:58 PM AST
قمر 10:47 PM AST 9:12 AM AST
Length Of Visible Light 13h 28m
طول الیوم
12h 42m
Tomorrow will be 1m 8s longer.
الأحدب الأخير, 77% of the Moon is Illuminated
هذا اليوم
الأحدب الأخير
Apr 22
الربع الآخر
Apr 29
New
May 6
الربع الاول
May 14
بدر

Today's Extremes

Country Highs Country Lows

Community

  • Piriapolis
    Piriapolis
  • A Glorious Morning
    A Glorious Morning
  • Tender Rays Of Hope
    Tender Rays Of Hope
  • Bleeding Hearts
    Bleeding Hearts
  • Sunset Silhouettes
    Sunset Silhouettes

WunderPhotos

Upload Photos

1,702,878 photos uploaded!

WunderBlogs® & News

Nearby

جودة الهواء

Not available.

عمق الثلج

Not available.

Coastal Water Temperatures

مكان درجات الحرارة
No Stations Reporting

Earthquake Activity

City Distance Mag. Time & Date
No recent earthquake activity has been reported nearby.
Minimum magnitude displayed is 2.5.

Nearby Weather Stations

There are no personal weather stations in this area.

What do you think?

We're not finished. Please let us know what you like, what you don't like, and what you are still missing.